Merced, California
Current Conditions -  °F | °C
As of 7:53 PM on Tuesday 21 Oct 2014 (Local Time) from KMCE Reporting Station
Clear Clear  
Wind Chill: 64°   Ceiling: Unl
Heat Index: 64°   Visibility: 10mi
Dew Point: 41°   Wind: 9mph
Humidity: 43%   Direction: 320°NW
Pressure: 29.98"   Gusts: NA
Location:  37.3°N, 120.48°W
Report Text: KMCE 220253Z AUTO 32008KT 10SM CLR 18/05 A2998 RMK AO2 SLP151 T01780050 53002
Loading
Personal Weather Stations






























Interactive Weather Map
Tropical Storm Tracking
New forecast layout! Learn more

10-Day Weather Forecast

Advertisements
Track Severe Weather on mobile